LFRZ/SNR METAR and TAF weather

Enter ICAO airport designator
Station Type Date Time Source
LFRZ METAR 2020/08/14 17:00 UTC NOAA

LFRZ 141700Z AUTO 27011KT 240V300 CAVOK 23/14 Q1016 NOSIG


Station Type Date Time Source
LFRZ Decoded METAR 2020/08/14 17:00 UTC NOAA

St-Nazaire, France (LFRZ) 47-19N 002-10W 4M
Aug 14, 2020 - 01:00 PM EDT / 2020.08.14 1700 UTC
Wind: from the W (270 degrees) at 13 MPH (11 KT) (direction variable):0
Visibility: greater than 7 mile(s):0
Temperature: 73 F (23 C)
Dew Point: 57 F (14 C)
Relative Humidity: 56%
Pressure (altimeter): 30.00 in. Hg (1016 hPa)
ob: LFRZ 141700Z AUTO 27011KT 240V300 CAVOK 23/14 Q1016 NOSIG
cycle: 17

Station Type Date Time Source
LFRZ TAF 2020/08/14 12:21 UTC NOAA

TAF TAF LFRZ 141100Z 1412/1512 25012KT 9999 SCT030
BECMG 1500/1502 VRB02KT
TEMPO 1504/1507 0500 FG VV///

Example: see airport list